Flight Track Log - Related Links

Times and Time Zones

All times are in EDT time to prevent confusion due to time zone crossing. See the SWA1319 flight status page for this flight to view local times or setup timezone preferences in your user account.

Time Position Orientation Groundspeed Altitude Reporting Facility
EDT Latitude Longitude Course Direction KTS MPH feet Rate Location/Type
Tue 09:42:27 PM 45.5728 -122.5139 103° East 171 197 2,200  Level Seattle Center
Tue 09:43:26 PM 45.5525 -122.4589 118° Southeast 212 244 4,200 2,600 Climbing Seattle Center
Tue 09:44:27 PM 45.4694 -122.4533 177° South 248 285 7,400 2,902 Climbing Seattle Center
Tue 09:45:28 PM 45.3906 -122.4475 177° South 279 321 10,100 2,380 Climbing Seattle Center
Tue 09:46:28 PM 45.3092 -122.4808 196° South 318 366 12,200 2,281 Climbing Seattle Center
Tue 09:47:29 PM 45.2394 -122.5750 224° Southwest 345 397 14,700 2,213 Climbing Seattle Center
Tue 09:48:30 PM 45.1658 -122.6808 225° Southwest 376 433 16,700 1,967 Climbing Seattle Center
Tue 09:49:31 PM 45.0747 -122.7633 213° Southwest 391 450 18,700 1,736 Climbing Seattle Center
Tue 09:50:31 PM 44.9567 -122.8006 193° South 427 491 20,200 1,785 Climbing Seattle Center
Tue 09:51:32 PM 44.8328 -122.8386 192° South 447 514 22,300 1,820 Climbing Seattle Center
Tue 09:52:33 PM 44.7050 -122.8783 192° South 462 532 23,900 1,574 Climbing Seattle Center
Tue 09:53:34 PM 44.5714 -122.9208 193° South 484 557 25,500 1,488 Climbing Seattle Center
Tue 09:54:34 PM 44.4322 -122.9414 186° South 501 577 26,900 1,388 Climbing Seattle Center
Tue 09:55:35 PM 44.2917 -122.9364 179° South 513 590 28,300 1,377 Climbing Seattle Center
Tue 09:56:36 PM 44.1447 -122.9322 179° South 519 597 29,700 1,289 Climbing Seattle Center
Tue 09:57:36 PM 43.9953 -122.9267 178° South 524 603 30,900 1,339 Climbing Seattle Center
Tue 09:58:37 PM 43.8453 -122.9231 179° South 531 611 32,400 1,426 Climbing Seattle Center
Tue 09:59:38 PM 43.6969 -122.9192 179° South 532 612 33,800 1,279 Climbing Seattle Center
Tue 10:00:39 PM 43.5511 -122.9131 178° South 526 605 35,000 595 Climbing Seattle Center
Tue 10:01:39 PM 43.4033 -122.9078 179° South 529 609 35,000  Level Seattle Center
Tue 10:02:40 PM 43.2575 -122.9028 179° South 524 603 35,000  Level Seattle Center
Tue 10:03:41 PM 43.1111 -122.8994 179° South 524 603 35,000  Level Seattle Center
Tue 10:04:41 PM 42.9656 -122.8936 178° South 524 603 35,000  Level Seattle Center
Tue 10:05:42 PM 42.8192 -122.8903 179° South 525 604 35,000  Level Seattle Center
Tue 10:06:43 PM 42.6667 -122.8853 179° South 524 603 35,000  Level Seattle Center
Tue 10:07:44 PM 42.5225 -122.8808 179° South 521 600 35,000  Level Seattle Center
Tue 10:08:44 PM 42.3769 -122.8794 180° South 523 602 35,000  Level Seattle Center
Tue 10:09:45 PM 42.2333 -122.8747 179° South 521 600 35,000  Level Seattle Center
Tue 10:10:46 PM 42.0875 -122.8714 179° South 523 602 35,000  Level Seattle Center
Tue 10:11:47 PM 41.9153 -122.8664 179° South 521 600 35,000  Level Seattle Center
Tue 10:12:48 PM 41.7714 -122.8639 179° South 520 598 35,000  Level Seattle Center
Tue 10:13:48 PM 41.6286 -122.8594 179° South 518 596 35,000  Level Seattle Center
Tue 10:14:49 PM 41.4844 -122.8547 179° South 518 596 35,000  Level Seattle Center
Tue 10:15:50 PM 41.3386 -122.8411 176° South 516 594 35,000  Level Seattle Center
Tue 10:16:51 PM 41.1939 -122.8272 176° South 520 598 35,000  Level Seattle Center
Tue 10:17:31 PM 41.1083 -122.8192 176° South 519 597 35,000  Level Oakland Center
Tue 10:18:32 PM 40.9644 -122.8072 176° South 518 596 35,000  Level Oakland Center
Tue 10:19:33 PM 40.7917 -122.7922 176° South 520 598 35,000  Level Oakland Center
Tue 10:20:34 PM 40.6472 -122.7794 176° South 521 600 35,000  Level Oakland Center
Tue 10:21:35 PM 40.5047 -122.7667 176° South 518 596 35,000 -344 Level Oakland Center
Tue 10:22:36 PM 40.3622 -122.7544 176° South 518 596 34,300 -836 Descending Oakland Center
Tue 10:23:37 PM 40.2206 -122.7419 176° South 516 594 33,300 -639 Descending Oakland Center
Tue 10:24:38 PM 40.0747 -122.7294 176° South 529 609 33,000 -148 Descending Oakland Center
Tue 10:25:39 PM 39.9278 -122.7178 177° South 535 616 33,000  Level Oakland Center
Tue 10:26:40 PM 39.7811 -122.7047 176° South 533 613 33,000 -49 Level Oakland Center
Tue 10:27:41 PM 39.6350 -122.6922 176° South 529 609 32,900 -1,388 Descending Oakland Center
Tue 10:28:41 PM 39.4547 -122.6775 176° South 541 623 30,200 -2,529 Descending Oakland Center
Tue 10:29:42 PM 39.3050 -122.6636 176° South 540 621 27,800 -2,164 Descending Oakland Center
Tue 10:30:43 PM 39.1814 -122.6539 177° South 524 603 25,800 -2,311 Descending Oakland Center
Tue 10:31:44 PM 39.0119 -122.6386 176° South 508 585 23,100 -2,361 Descending Oakland Center
Tue 10:32:45 PM 38.8917 -122.6275 176° South 495 570 21,000 -2,066 Descending Oakland Center
Tue 10:33:46 PM 38.7594 -122.6186 177° South 478 550 18,900 -2,016 Descending Oakland Center
Tue 10:34:47 PM 38.6344 -122.6064 176° South 453 521 16,900 -2,066 Descending Oakland Center
Tue 10:35:48 PM 38.5158 -122.5875 173° South 430 495 14,700 -2,213 Descending Oakland Center
Tue 10:36:49 PM 38.3853 -122.5583 170° South 397 457 12,400 -1,967 Descending Oakland Center
Tue 10:37:50 PM 38.2817 -122.5594 180° South 370 426 10,700 -1,279 Descending Oakland Center
Tue 10:38:51 PM 38.1886 -122.5586 180° South 337 388 9,800 -1,328 Descending Oakland Center
Tue 10:39:52 PM 38.1069 -122.5583 180° South 304 350 8,000 -1,366 Descending Oakland Center
Tue 10:40:54 PM 38.0258 -122.5564 179° South 293 337 7,000 -683 Descending Oakland Center
Tue 10:41:55 PM 37.9447 -122.5308 166° South 299 344 6,600 -934 Descending Oakland Center
Tue 10:42:56 PM 37.9103 -122.4439 117° Southeast 282 325 5,100 -836 Descending Oakland Center
Tue 10:43:57 PM 37.8844 -122.3533 110° East 275 316 4,900 -98 Descending Oakland Center
Tue 10:44:58 PM 37.8458 -122.2758 122° Southeast 267 307 4,900 -295 Level Oakland Center
Tue 10:45:59 PM 37.7981 -122.2000 129° Southeast 271 312 4,300 -639 Descending Oakland Center
Tue 10:47:00 PM 37.7525 -122.1294 129° Southeast 265 305 3,600 -689 Descending Oakland Center
Tue 10:48:01 PM 37.7039 -122.0844 144° Southeast 240 276 2,900 -639 Descending Oakland Center
Tue 10:49:02 PM 37.6575 -122.1103 204° Southwest 203 234 2,300 -885 Descending Oakland Center
Tue 10:50:03 PM 37.6592 -122.1519 273° West 161 185 1,100 -878 Descending Oakland Center
Tue 10:51:05 PM 37.6836 -122.1872 311° West 142 163 500 2,878 Descending Oakland Center
Tue 10:52:06 PM 37.7103 -122.2283 309° West 132 152 7,000 6,393 Climbing Oakland Center

Login

Don't have an account? Register now (free) for customized features, flight alerts, and more!